sensor_id;sensor_type;location;lat;lon;timestamp;temperature;humidity
33428;DHT22;19769;48.150;16.306;2023-06-14T00:00:20;15.30;99.90
33428;DHT22;19769;48.150;16.306;2023-06-14T00:02:46;15.30;99.90
33428;DHT22;19769;48.150;16.306;2023-06-14T00:05:12;15.20;99.90
33428;DHT22;19769;48.150;16.306;2023-06-14T00:07:38;15.20;99.90
33428;DHT22;19769;48.150;16.306;2023-06-14T00:10:08;15.20;99.90
33428;DHT22;19769;48.150;16.306;2023-06-14T00:12:34;15.20;99.90
33428;DHT22;19769;48.150;16.306;2023-06-14T00:15:00;15.20;99.90
33428;DHT22;19769;48.150;16.306;2023-06-14T00:17:27;15.20;99.90
33428;DHT22;19769;48.150;16.306;2023-06-14T00:19:56;15.20;99.90
33428;DHT22;19769;48.150;16.306;2023-06-14T00:22:23;15.20;99.90
33428;DHT22;19769;48.150;16.306;2023-06-14T00:24:53;15.10;99.90
33428;DHT22;19769;48.150;16.306;2023-06-14T00:27:18;15.10;99.90
33428;DHT22;19769;48.150;16.306;2023-06-14T00:29:44;15.10;99.90
33428;DHT22;19769;48.150;16.306;2023-06-14T00:32:10;15.10;99.90
33428;DHT22;19769;48.150;16.306;2023-06-14T00:34:36;15.10;99.90
33428;DHT22;19769;48.150;16.306;2023-06-14T00:37:01;15.10;99.90
33428;DHT22;19769;48.150;16.306;2023-06-14T00:39:27;15.10;99.90
33428;DHT22;19769;48.150;16.306;2023-06-14T00:41:53;15.10;99.90
33428;DHT22;19769;48.150;16.306;2023-06-14T00:44:19;15.00;99.90
33428;DHT22;19769;48.150;16.306;2023-06-14T00:46:45;15.00;99.90
33428;DHT22;19769;48.150;16.306;2023-06-14T00:49:11;15.00;99.90
33428;DHT22;19769;48.150;16.306;2023-06-14T00:51:39;15.00;99.90
33428;DHT22;19769;48.150;16.306;2023-06-14T00:54:05;14.90;99.90
33428;DHT22;19769;48.150;16.306;2023-06-14T00:56:30;15.00;99.90
33428;DHT22;19769;48.150;16.306;2023-06-14T00:58:56;15.00;99.90
33428;DHT22;19769;48.150;16.306;2023-06-14T01:01:23;14.90;99.90
33428;DHT22;19769;48.150;16.306;2023-06-14T01:03:49;15.00;99.90
33428;DHT22;19769;48.150;16.306;2023-06-14T01:09:38;15.10;99.90
33428;DHT22;19769;48.150;16.306;2023-06-14T01:11:41;15.10;99.90
33428;DHT22;19769;48.150;16.306;2023-06-14T01:14:08;15.10;99.90
33428;DHT22;19769;48.150;16.306;2023-06-14T01:16:36;15.20;99.90
33428;DHT22;19769;48.150;16.306;2023-06-14T01:19:05;15.10;99.90
33428;DHT22;19769;48.150;16.306;2023-06-14T01:21:31;15.10;99.90
33428;DHT22;19769;48.150;16.306;2023-06-14T01:23:59;15.20;99.90
33428;DHT22;19769;48.150;16.306;2023-06-14T01:26:25;15.20;99.90
33428;DHT22;19769;48.150;16.306;2023-06-14T01:28:54;15.20;99.90
33428;DHT22;19769;48.150;16.306;2023-06-14T01:31:22;15.20;99.90
33428;DHT22;19769;48.150;16.306;2023-06-14T01:33:49;15.20;99.90
33428;DHT22;19769;48.150;16.306;2023-06-14T01:36:16;15.20;99.90
33428;DHT22;19769;48.150;16.306;2023-06-14T01:38:43;15.30;99.90
33428;DHT22;19769;48.150;16.306;2023-06-14T01:41:10;15.30;99.90
33428;DHT22;19769;48.150;16.306;2023-06-14T01:43:36;15.30;99.90
33428;DHT22;19769;48.150;16.306;2023-06-14T01:46:04;15.30;99.90
33428;DHT22;19769;48.150;16.306;2023-06-14T01:48:30;15.30;99.90
33428;DHT22;19769;48.150;16.306;2023-06-14T01:50:56;15.30;99.90
33428;DHT22;19769;48.150;16.306;2023-06-14T01:53:22;15.30;99.90
33428;DHT22;19769;48.150;16.306;2023-06-14T01:55:47;15.40;99.90
33428;DHT22;19769;48.150;16.306;2023-06-14T01:58:14;15.40;99.90
33428;DHT22;19769;48.150;16.306;2023-06-14T02:00:42;15.40;99.90
33428;DHT22;19769;48.150;16.306;2023-06-14T02:03:09;15.40;99.90
33428;DHT22;19769;48.150;16.306;2023-06-14T02:05:35;15.40;99.90
33428;DHT22;19769;48.150;16.306;2023-06-14T02:08:00;15.40;99.90
33428;DHT22;19769;48.150;16.306;2023-06-14T02:10:26;15.50;99.90
33428;DHT22;19769;48.150;16.306;2023-06-14T02:12:54;15.40;99.90
33428;DHT22;19769;48.150;16.306;2023-06-14T02:15:20;15.50;99.90
33428;DHT22;19769;48.150;16.306;2023-06-14T02:17:47;15.40;99.90
33428;DHT22;19769;48.150;16.306;2023-06-14T02:20:13;15.50;99.90
33428;DHT22;19769;48.150;16.306;2023-06-14T02:22:39;15.50;99.90
33428;DHT22;19769;48.150;16.306;2023-06-14T02:25:06;15.50;99.90
33428;DHT22;19769;48.150;16.306;2023-06-14T02:27:33;15.50;99.90
33428;DHT22;19769;48.150;16.306;2023-06-14T02:29:59;15.50;99.90
33428;DHT22;19769;48.150;16.306;2023-06-14T02:32:25;15.60;99.90
33428;DHT22;19769;48.150;16.306;2023-06-14T02:34:53;15.50;99.90
33428;DHT22;19769;48.150;16.306;2023-06-14T02:37:19;15.60;99.90
33428;DHT22;19769;48.150;16.306;2023-06-14T02:39:45;15.60;99.90
33428;DHT22;19769;48.150;16.306;2023-06-14T02:42:11;15.70;99.90
33428;DHT22;19769;48.150;16.306;2023-06-14T02:44:37;15.70;99.90
33428;DHT22;19769;48.150;16.306;2023-06-14T02:47:03;15.60;99.90
33428;DHT22;19769;48.150;16.306;2023-06-14T02:49:29;15.70;99.90
33428;DHT22;19769;48.150;16.306;2023-06-14T02:51:55;15.60;99.90
33428;DHT22;19769;48.150;16.306;2023-06-14T02:54:21;15.60;99.90
33428;DHT22;19769;48.150;16.306;2023-06-14T02:56:46;15.60;99.90
33428;DHT22;19769;48.150;16.306;2023-06-14T02:59:12;15.60;99.90
33428;DHT22;19769;48.150;16.306;2023-06-14T03:01:40;15.60;99.90
33428;DHT22;19769;48.150;16.306;2023-06-14T03:04:09;15.50;99.90
33428;DHT22;19769;48.150;16.306;2023-06-14T03:06:37;15.50;99.90
33428;DHT22;19769;48.150;16.306;2023-06-14T03:09:06;15.50;99.90
33428;DHT22;19769;48.150;16.306;2023-06-14T03:11:37;15.40;99.90
33428;DHT22;19769;48.150;16.306;2023-06-14T03:14:03;15.40;99.90
33428;DHT22;19769;48.150;16.306;2023-06-14T03:16:29;15.40;99.90
33428;DHT22;19769;48.150;16.306;2023-06-14T03:18:58;15.50;99.90
33428;DHT22;19769;48.150;16.306;2023-06-14T03:21:27;15.40;99.90
33428;DHT22;19769;48.150;16.306;2023-06-14T03:23:57;15.50;99.90
33428;DHT22;19769;48.150;16.306;2023-06-14T03:26:24;15.40;99.90
33428;DHT22;19769;48.150;16.306;2023-06-14T03:28:52;15.40;99.90
33428;DHT22;19769;48.150;16.306;2023-06-14T03:31:19;15.40;99.90
33428;DHT22;19769;48.150;16.306;2023-06-14T03:33:45;15.30;99.90
33428;DHT22;19769;48.150;16.306;2023-06-14T03:36:11;15.30;99.90
33428;DHT22;19769;48.150;16.306;2023-06-14T03:38:37;15.30;99.90
33428;DHT22;19769;48.150;16.306;2023-06-14T03:41:04;15.30;99.90
33428;DHT22;19769;48.150;16.306;2023-06-14T03:43:31;15.30;99.90
33428;DHT22;19769;48.150;16.306;2023-06-14T03:45:57;15.20;99.90
33428;DHT22;19769;48.150;16.306;2023-06-14T03:48:24;15.20;99.90
33428;DHT22;19769;48.150;16.306;2023-06-14T03:50:50;15.20;99.90
33428;DHT22;19769;48.150;16.306;2023-06-14T03:53:16;15.20;99.90
33428;DHT22;19769;48.150;16.306;2023-06-14T03:55:46;15.20;99.90
33428;DHT22;19769;48.150;16.306;2023-06-14T03:58:15;15.20;99.90
33428;DHT22;19769;48.150;16.306;2023-06-14T04:00:41;15.20;99.90
33428;DHT22;19769;48.150;16.306;2023-06-14T04:03:06;15.20;99.90
33428;DHT22;19769;48.150;16.306;2023-06-14T04:05:32;15.30;99.90
33428;DHT22;19769;48.150;16.306;2023-06-14T04:07:59;15.30;99.90
33428;DHT22;19769;48.150;16.306;2023-06-14T04:10:26;15.30;99.90
33428;DHT22;19769;48.150;16.306;2023-06-14T04:12:52;15.30;99.90
33428;DHT22;19769;48.150;16.306;2023-06-14T04:15:18;15.30;99.90
33428;DHT22;19769;48.150;16.306;2023-06-14T04:17:44;15.30;99.90
33428;DHT22;19769;48.150;16.306;2023-06-14T04:20:10;15.30;99.90
33428;DHT22;19769;48.150;16.306;2023-06-14T04:22:36;15.40;99.90
33428;DHT22;19769;48.150;16.306;2023-06-14T04:27:32;15.60;99.90
33428;DHT22;19769;48.150;16.306;2023-06-14T04:30:03;15.70;99.90
33428;DHT22;19769;48.150;16.306;2023-06-14T04:32:35;15.90;99.90
33428;DHT22;19769;48.150;16.306;2023-06-14T04:35:06;16.10;99.90
33428;DHT22;19769;48.150;16.306;2023-06-14T04:37:34;16.20;99.90
33428;DHT22;19769;48.150;16.306;2023-06-14T04:40:06;16.30;99.90
33428;DHT22;19769;48.150;16.306;2023-06-14T04:42:33;16.30;99.90
33428;DHT22;19769;48.150;16.306;2023-06-14T04:45:04;16.30;99.90
33428;DHT22;19769;48.150;16.306;2023-06-14T04:47:30;16.30;99.90
33428;DHT22;19769;48.150;16.306;2023-06-14T04:49:57;16.30;99.90
33428;DHT22;19769;48.150;16.306;2023-06-14T04:52:23;16.40;99.90
33428;DHT22;19769;48.150;16.306;2023-06-14T04:54:53;16.40;99.90
33428;DHT22;19769;48.150;16.306;2023-06-14T04:57:23;16.50;99.90
33428;DHT22;19769;48.150;16.306;2023-06-14T04:59:52;16.60;99.90
33428;DHT22;19769;48.150;16.306;2023-06-14T05:02:24;16.60;99.90
33428;DHT22;19769;48.150;16.306;2023-06-14T05:04:53;16.70;99.90
33428;DHT22;19769;48.150;16.306;2023-06-14T05:07:19;16.80;99.90
33428;DHT22;19769;48.150;16.306;2023-06-14T05:09:47;16.80;99.90
33428;DHT22;19769;48.150;16.306;2023-06-14T05:12:14;16.80;99.90
33428;DHT22;19769;48.150;16.306;2023-06-14T05:14:43;16.90;99.90
33428;DHT22;19769;48.150;16.306;2023-06-14T05:17:09;17.00;99.90
33428;DHT22;19769;48.150;16.306;2023-06-14T05:19:35;17.10;99.90
33428;DHT22;19769;48.150;16.306;2023-06-14T05:22:01;17.10;99.90
33428;DHT22;19769;48.150;16.306;2023-06-14T05:24:28;17.20;99.90
33428;DHT22;19769;48.150;16.306;2023-06-14T05:26:56;17.30;99.90
33428;DHT22;19769;48.150;16.306;2023-06-14T05:29:22;17.30;99.90
33428;DHT22;19769;48.150;16.306;2023-06-14T05:31:48;17.40;99.90
33428;DHT22;19769;48.150;16.306;2023-06-14T05:34:13;17.40;99.90
33428;DHT22;19769;48.150;16.306;2023-06-14T05:36:40;17.50;99.90
33428;DHT22;19769;48.150;16.306;2023-06-14T05:39:06;17.70;99.90
33428;DHT22;19769;48.150;16.306;2023-06-14T05:41:34;17.70;99.90
33428;DHT22;19769;48.150;16.306;2023-06-14T05:44:00;16.80;99.90
33428;DHT22;19769;48.150;16.306;2023-06-14T05:46:26;17.90;99.90
33428;DHT22;19769;48.150;16.306;2023-06-14T05:48:52;17.90;99.90
33428;DHT22;19769;48.150;16.306;2023-06-14T05:51:18;18.00;99.90
33428;DHT22;19769;48.150;16.306;2023-06-14T05:53:50;18.00;99.90
33428;DHT22;19769;48.150;16.306;2023-06-14T05:56:17;18.00;99.90
33428;DHT22;19769;48.150;16.306;2023-06-14T05:58:43;18.10;99.90
33428;DHT22;19769;48.150;16.306;2023-06-14T06:01:09;18.20;99.90
33428;DHT22;19769;48.150;16.306;2023-06-14T06:03:35;18.40;99.90
33428;DHT22;19769;48.150;16.306;2023-06-14T06:06:00;18.60;99.90
33428;DHT22;19769;48.150;16.306;2023-06-14T06:08:26;18.80;99.90
33428;DHT22;19769;48.150;16.306;2023-06-14T06:10:52;19.00;99.90
33428;DHT22;19769;48.150;16.306;2023-06-14T06:13:19;19.20;99.90
33428;DHT22;19769;48.150;16.306;2023-06-14T06:15:46;19.30;99.90
33428;DHT22;19769;48.150;16.306;2023-06-14T06:18:12;19.40;99.90
33428;DHT22;19769;48.150;16.306;2023-06-14T06:20:38;19.50;99.90
33428;DHT22;19769;48.150;16.306;2023-06-14T06:23:03;19.60;99.90
33428;DHT22;19769;48.150;16.306;2023-06-14T06:25:29;19.60;99.90
33428;DHT22;19769;48.150;16.306;2023-06-14T06:27:57;19.60;99.90
33428;DHT22;19769;48.150;16.306;2023-06-14T06:30:23;19.60;99.90
33428;DHT22;19769;48.150;16.306;2023-06-14T06:32:49;19.70;99.90
33428;DHT22;19769;48.150;16.306;2023-06-14T06:35:16;19.70;99.90
33428;DHT22;19769;48.150;16.306;2023-06-14T06:37:44;19.80;99.90
33428;DHT22;19769;48.150;16.306;2023-06-14T06:40:10;19.80;99.90
33428;DHT22;19769;48.150;16.306;2023-06-14T06:42:37;19.90;99.90
33428;DHT22;19769;48.150;16.306;2023-06-14T06:45:04;19.90;99.30
33428;DHT22;19769;48.150;16.306;2023-06-14T06:47:30;20.10;97.90
33428;DHT22;19769;48.150;16.306;2023-06-14T06:49:56;20.10;98.30
33428;DHT22;19769;48.150;16.306;2023-06-14T06:52:22;20.20;97.80
33428;DHT22;19769;48.150;16.306;2023-06-14T06:54:47;20.30;98.40
33428;DHT22;19769;48.150;16.306;2023-06-14T06:57:14;20.50;98.10
33428;DHT22;19769;48.150;16.306;2023-06-14T06:59:40;20.70;97.70
33428;DHT22;19769;48.150;16.306;2023-06-14T07:02:06;20.90;96.50
33428;DHT22;19769;48.150;16.306;2023-06-14T07:04:32;21.00;96.00
33428;DHT22;19769;48.150;16.306;2023-06-14T07:06:57;21.20;94.80
33428;DHT22;19769;48.150;16.306;2023-06-14T07:09:23;21.30;93.30
33428;DHT22;19769;48.150;16.306;2023-06-14T07:11:52;21.40;93.70
33428;DHT22;19769;48.150;16.306;2023-06-14T07:14:21;21.60;92.30
33428;DHT22;19769;48.150;16.306;2023-06-14T07:20:31;20.60;91.50
33428;DHT22;19769;48.150;16.306;2023-06-14T07:23:09;22.20;90.80
33428;DHT22;19769;48.150;16.306;2023-06-14T07:26:38;21.70;92.20
33428;DHT22;19769;48.150;16.306;2023-06-14T07:29:26;20.80;90.50
33428;DHT22;19769;48.150;16.306;2023-06-14T07:32:33;21.90;91.40
33428;DHT22;19769;48.150;16.306;2023-06-14T07:35:01;21.90;91.60
33428;DHT22;19769;48.150;16.306;2023-06-14T07:37:28;22.00;92.00
33428;DHT22;19769;48.150;16.306;2023-06-14T07:39:54;22.20;90.30
33428;DHT22;19769;48.150;16.306;2023-06-14T07:42:20;22.20;91.10
33428;DHT22;19769;48.150;16.306;2023-06-14T07:44:47;22.40;90.90
33428;DHT22;19769;48.150;16.306;2023-06-14T07:47:13;22.50;88.00
33428;DHT22;19769;48.150;16.306;2023-06-14T07:49:39;22.70;85.00
33428;DHT22;19769;48.150;16.306;2023-06-14T07:52:05;22.70;84.80
33428;DHT22;19769;48.150;16.306;2023-06-14T07:54:30;22.90;84.20
33428;DHT22;19769;48.150;16.306;2023-06-14T07:56:58;23.00;83.00
33428;DHT22;19769;48.150;16.306;2023-06-14T07:59:26;23.10;82.30
33428;DHT22;19769;48.150;16.306;2023-06-14T08:01:52;23.30;82.60
33428;DHT22;19769;48.150;16.306;2023-06-14T08:04:18;23.40;82.80
33428;DHT22;19769;48.150;16.306;2023-06-14T08:06:43;23.50;78.60
33428;DHT22;19769;48.150;16.306;2023-06-14T08:09:11;23.60;76.00
33428;DHT22;19769;48.150;16.306;2023-06-14T08:11:38;23.50;77.00
33428;DHT22;19769;48.150;16.306;2023-06-14T08:14:04;23.50;76.80
33428;DHT22;19769;48.150;16.306;2023-06-14T08:16:29;23.40;75.50
33428;DHT22;19769;48.150;16.306;2023-06-14T08:18:55;23.20;75.90
33428;DHT22;19769;48.150;16.306;2023-06-14T08:21:21;23.10;76.30
33428;DHT22;19769;48.150;16.306;2023-06-14T08:23:47;23.10;77.60
33428;DHT22;19769;48.150;16.306;2023-06-14T08:26:13;23.20;78.60
33428;DHT22;19769;48.150;16.306;2023-06-14T08:28:38;23.30;77.10
33428;DHT22;19769;48.150;16.306;2023-06-14T08:31:04;23.40;76.70
33428;DHT22;19769;48.150;16.306;2023-06-14T08:33:30;23.60;74.80
33428;DHT22;19769;48.150;16.306;2023-06-14T08:35:58;23.80;72.90
33428;DHT22;19769;48.150;16.306;2023-06-14T08:38:26;23.50;74.10
33428;DHT22;19769;48.150;16.306;2023-06-14T08:45:46;23.50;74.20
33428;DHT22;19769;48.150;16.306;2023-06-14T08:48:16;23.40;72.70
33428;DHT22;19769;48.150;16.306;2023-06-14T08:50:45;23.30;72.50
33428;DHT22;19769;48.150;16.306;2023-06-14T08:53:12;23.30;72.20
33428;DHT22;19769;48.150;16.306;2023-06-14T08:55:45;23.40;72.30
33428;DHT22;19769;48.150;16.306;2023-06-14T08:58:13;23.30;74.90
33428;DHT22;19769;48.150;16.306;2023-06-14T09:00:39;23.30;76.90
33428;DHT22;19769;48.150;16.306;2023-06-14T09:03:07;23.50;78.50
33428;DHT22;19769;48.150;16.306;2023-06-14T09:05:38;23.70;75.30
33428;DHT22;19769;48.150;16.306;2023-06-14T09:08:04;24.00;72.90
33428;DHT22;19769;48.150;16.306;2023-06-14T09:10:30;24.30;72.50
33428;DHT22;19769;48.150;16.306;2023-06-14T09:13:00;24.40;71.70
33428;DHT22;19769;48.150;16.306;2023-06-14T09:15:27;24.50;73.80
33428;DHT22;19769;48.150;16.306;2023-06-14T09:17:52;24.70;72.30
33428;DHT22;19769;48.150;16.306;2023-06-14T09:20:18;24.90;72.60
33428;DHT22;19769;48.150;16.306;2023-06-14T09:22:44;24.90;69.30
33428;DHT22;19769;48.150;16.306;2023-06-14T09:25:11;24.90;67.90
33428;DHT22;19769;48.150;16.306;2023-06-14T09:27:41;25.10;68.90
33428;DHT22;19769;48.150;16.306;2023-06-14T09:30:09;25.30;67.90
33428;DHT22;19769;48.150;16.306;2023-06-14T09:32:38;25.50;65.50
33428;DHT22;19769;48.150;16.306;2023-06-14T09:35:06;25.60;66.30
33428;DHT22;19769;48.150;16.306;2023-06-14T09:37:32;25.60;65.20
33428;DHT22;19769;48.150;16.306;2023-06-14T09:39:58;25.60;65.70
33428;DHT22;19769;48.150;16.306;2023-06-14T09:42:24;25.70;64.40
33428;DHT22;19769;48.150;16.306;2023-06-14T09:44:54;25.90;65.30
33428;DHT22;19769;48.150;16.306;2023-06-14T09:47:20;26.10;63.70
33428;DHT22;19769;48.150;16.306;2023-06-14T09:49:47;26.10;63.20
33428;DHT22;19769;48.150;16.306;2023-06-14T09:52:19;26.30;64.40
33428;DHT22;19769;48.150;16.306;2023-06-14T09:54:46;26.30;64.30
33428;DHT22;19769;48.150;16.306;2023-06-14T09:57:13;26.40;63.50
33428;DHT22;19769;48.150;16.306;2023-06-14T09:59:40;26.40;60.30
33428;DHT22;19769;48.150;16.306;2023-06-14T10:02:09;26.40;60.00
33428;DHT22;19769;48.150;16.306;2023-06-14T10:04:36;26.60;62.70
33428;DHT22;19769;48.150;16.306;2023-06-14T10:07:02;26.80;61.70
33428;DHT22;19769;48.150;16.306;2023-06-14T10:09:29;26.80;59.90
33428;DHT22;19769;48.150;16.306;2023-06-14T10:11:55;26.80;59.10
33428;DHT22;19769;48.150;16.306;2023-06-14T10:14:21;26.90;57.70
33428;DHT22;19769;48.150;16.306;2023-06-14T10:16:50;27.00;57.00
33428;DHT22;19769;48.150;16.306;2023-06-14T10:22:11;27.30;58.80
33428;DHT22;19769;48.150;16.306;2023-06-14T10:24:40;27.40;54.20
33428;DHT22;19769;48.150;16.306;2023-06-14T10:27:06;27.30;55.70
33428;DHT22;19769;48.150;16.306;2023-06-14T10:30:01;27.30;56.00
33428;DHT22;19769;48.150;16.306;2023-06-14T10:32:27;27.40;54.30
33428;DHT22;19769;48.150;16.306;2023-06-14T10:35:05;27.20;56.00
33428;DHT22;19769;48.150;16.306;2023-06-14T10:37:34;26.90;55.40
33428;DHT22;19769;48.150;16.306;2023-06-14T10:40:01;26.70;55.50
33428;DHT22;19769;48.150;16.306;2023-06-14T10:42:31;26.40;56.80
33428;DHT22;19769;48.150;16.306;2023-06-14T10:44:57;26.00;56.30
33428;DHT22;19769;48.150;16.306;2023-06-14T10:47:25;25.80;55.80
33428;DHT22;19769;48.150;16.306;2023-06-14T10:49:52;25.60;56.00
33428;DHT22;19769;48.150;16.306;2023-06-14T10:52:21;25.50;57.30
33428;DHT22;19769;48.150;16.306;2023-06-14T10:57:24;25.90;60.20
33428;DHT22;19769;48.150;16.306;2023-06-14T10:59:50;26.20;57.80
33428;DHT22;19769;48.150;16.306;2023-06-14T11:04:48;26.60;56.50
33428;DHT22;19769;48.150;16.306;2023-06-14T11:12:16;26.50;54.20
33428;DHT22;19769;48.150;16.306;2023-06-14T11:14:45;26.20;55.30
33428;DHT22;19769;48.150;16.306;2023-06-14T11:17:12;25.90;56.60
33428;DHT22;19769;48.150;16.306;2023-06-14T11:19:37;25.70;57.10
33428;DHT22;19769;48.150;16.306;2023-06-14T11:22:03;25.70;55.50
33428;DHT22;19769;48.150;16.306;2023-06-14T11:24:29;25.80;55.20
33428;DHT22;19769;48.150;16.306;2023-06-14T11:26:55;26.10;54.60
33428;DHT22;19769;48.150;16.306;2023-06-14T11:29:22;26.10;54.70
33428;DHT22;19769;48.150;16.306;2023-06-14T11:31:48;26.00;55.60
33428;DHT22;19769;48.150;16.306;2023-06-14T11:34:14;26.00;54.80
33428;DHT22;19769;48.150;16.306;2023-06-14T11:36:40;26.10;55.60
33428;DHT22;19769;48.150;16.306;2023-06-14T11:39:07;26.20;56.50
33428;DHT22;19769;48.150;16.306;2023-06-14T11:41:38;26.30;55.40
33428;DHT22;19769;48.150;16.306;2023-06-14T11:44:04;25.60;53.40
33428;DHT22;19769;48.150;16.306;2023-06-14T11:46:31;26.20;53.70
33428;DHT22;19769;48.150;16.306;2023-06-14T11:49:01;26.00;55.00
33428;DHT22;19769;48.150;16.306;2023-06-14T11:51:31;26.00;54.60
33428;DHT22;19769;48.150;16.306;2023-06-14T11:53:57;25.90;54.40
33428;DHT22;19769;48.150;16.306;2023-06-14T11:56:23;25.80;54.90
33428;DHT22;19769;48.150;16.306;2023-06-14T11:58:49;25.80;54.70
33428;DHT22;19769;48.150;16.306;2023-06-14T12:01:18;25.50;56.10
33428;DHT22;19769;48.150;16.306;2023-06-14T12:03:48;25.60;55.10
33428;DHT22;19769;48.150;16.306;2023-06-14T12:06:14;25.80;55.90
33428;DHT22;19769;48.150;16.306;2023-06-14T12:08:42;25.80;54.00
33428;DHT22;19769;48.150;16.306;2023-06-14T12:11:13;25.90;54.60
33428;DHT22;19769;48.150;16.306;2023-06-14T12:13:41;25.70;54.60
33428;DHT22;19769;48.150;16.306;2023-06-14T12:16:08;25.80;55.00
33428;DHT22;19769;48.150;16.306;2023-06-14T12:18:35;25.60;54.50
33428;DHT22;19769;48.150;16.306;2023-06-14T12:21:05;25.40;55.50
33428;DHT22;19769;48.150;16.306;2023-06-14T12:23:48;25.30;56.70
33428;DHT22;19769;48.150;16.306;2023-06-14T12:26:18;25.10;56.90
33428;DHT22;19769;48.150;16.306;2023-06-14T12:29:04;25.00;57.00
33428;DHT22;19769;48.150;16.306;2023-06-14T12:31:30;24.90;56.60
33428;DHT22;19769;48.150;16.306;2023-06-14T12:33:57;24.70;57.10
33428;DHT22;19769;48.150;16.306;2023-06-14T12:36:31;24.60;57.40
33428;DHT22;19769;48.150;16.306;2023-06-14T12:38:59;24.20;58.00
33428;DHT22;19769;48.150;16.306;2023-06-14T12:41:25;24.40;59.60
33428;DHT22;19769;48.150;16.306;2023-06-14T12:43:52;24.30;58.60
33428;DHT22;19769;48.150;16.306;2023-06-14T12:46:17;24.30;59.40
33428;DHT22;19769;48.150;16.306;2023-06-14T12:48:43;24.20;59.50
33428;DHT22;19769;48.150;16.306;2023-06-14T12:51:09;24.10;60.60
33428;DHT22;19769;48.150;16.306;2023-06-14T12:53:35;24.00;60.20
33428;DHT22;19769;48.150;16.306;2023-06-14T12:56:01;23.90;60.10
33428;DHT22;19769;48.150;16.306;2023-06-14T12:58:28;23.90;60.50
33428;DHT22;19769;48.150;16.306;2023-06-14T13:00:54;23.90;61.20
33428;DHT22;19769;48.150;16.306;2023-06-14T13:03:20;24.00;60.10
33428;DHT22;19769;48.150;16.306;2023-06-14T13:05:47;24.00;59.80
33428;DHT22;19769;48.150;16.306;2023-06-14T13:08:13;23.90;60.10
33428;DHT22;19769;48.150;16.306;2023-06-14T13:10:39;23.80;61.50
33428;DHT22;19769;48.150;16.306;2023-06-14T13:13:04;23.80;60.20
33428;DHT22;19769;48.150;16.306;2023-06-14T13:15:30;23.70;61.00
33428;DHT22;19769;48.150;16.306;2023-06-14T13:17:57;23.60;60.10
33428;DHT22;19769;48.150;16.306;2023-06-14T13:20:23;23.60;62.30
33428;DHT22;19769;48.150;16.306;2023-06-14T13:22:50;23.60;64.60
33428;DHT22;19769;48.150;16.306;2023-06-14T13:25:16;23.50;63.00
33428;DHT22;19769;48.150;16.306;2023-06-14T13:27:42;23.40;62.90
33428;DHT22;19769;48.150;16.306;2023-06-14T13:30:09;23.40;64.00
33428;DHT22;19769;48.150;16.306;2023-06-14T13:32:35;23.40;63.40
33428;DHT22;19769;48.150;16.306;2023-06-14T13:35:00;23.40;62.60
33428;DHT22;19769;48.150;16.306;2023-06-14T13:37:27;23.50;61.30
33428;DHT22;19769;48.150;16.306;2023-06-14T13:39:53;23.60;63.20
33428;DHT22;19769;48.150;16.306;2023-06-14T13:42:19;23.80;66.20
33428;DHT22;19769;48.150;16.306;2023-06-14T13:44:46;24.20;63.00
33428;DHT22;19769;48.150;16.306;2023-06-14T13:47:12;24.50;62.70
33428;DHT22;19769;48.150;16.306;2023-06-14T13:49:47;24.70;60.40
33428;DHT22;19769;48.150;16.306;2023-06-14T13:52:27;25.00;63.00
33428;DHT22;19769;48.150;16.306;2023-06-14T13:54:59;25.00;62.00
33428;DHT22;19769;48.150;16.306;2023-06-14T13:57:27;25.20;59.30
33428;DHT22;19769;48.150;16.306;2023-06-14T13:59:55;25.30;57.80
33428;DHT22;19769;48.150;16.306;2023-06-14T14:02:38;25.30;60.70
33428;DHT22;19769;48.150;16.306;2023-06-14T14:05:05;25.30;62.40
33428;DHT22;19769;48.150;16.306;2023-06-14T14:07:36;25.30;60.90
33428;DHT22;19769;48.150;16.306;2023-06-14T14:13:31;25.10;58.60
33428;DHT22;19769;48.150;16.306;2023-06-14T14:15:57;25.10;58.60
33428;DHT22;19769;48.150;16.306;2023-06-14T14:18:33;25.00;59.10
33428;DHT22;19769;48.150;16.306;2023-06-14T14:21:27;24.10;60.10
33428;DHT22;19769;48.150;16.306;2023-06-14T14:27:55;25.00;57.40
33428;DHT22;19769;48.150;16.306;2023-06-14T14:30:27;25.00;57.80
33428;DHT22;19769;48.150;16.306;2023-06-14T14:32:54;24.90;58.30
33428;DHT22;19769;48.150;16.306;2023-06-14T14:35:21;24.80;58.40
33428;DHT22;19769;48.150;16.306;2023-06-14T14:37:53;25.60;59.70
33428;DHT22;19769;48.150;16.306;2023-06-14T14:40:19;24.50;59.50
33428;DHT22;19769;48.150;16.306;2023-06-14T14:42:45;24.60;59.40
33428;DHT22;19769;48.150;16.306;2023-06-14T14:45:10;24.40;58.70
33428;DHT22;19769;48.150;16.306;2023-06-14T14:47:36;23.40;57.60
33428;DHT22;19769;48.150;16.306;2023-06-14T14:50:02;24.40;58.80
33428;DHT22;19769;48.150;16.306;2023-06-14T14:52:29;24.50;58.20
33428;DHT22;19769;48.150;16.306;2023-06-14T14:54:55;24.40;58.20
33428;DHT22;19769;48.150;16.306;2023-06-14T14:57:21;24.30;57.30
33428;DHT22;19769;48.150;16.306;2023-06-14T14:59:47;24.00;57.70
33428;DHT22;19769;48.150;16.306;2023-06-14T15:02:14;23.90;57.90
33428;DHT22;19769;48.150;16.306;2023-06-14T15:04:42;24.00;58.20
33428;DHT22;19769;48.150;16.306;2023-06-14T15:07:22;23.90;58.90
33428;DHT22;19769;48.150;16.306;2023-06-14T15:09:51;23.90;59.10
33428;DHT22;19769;48.150;16.306;2023-06-14T15:12:17;23.90;59.00
33428;DHT22;19769;48.150;16.306;2023-06-14T15:14:45;23.80;58.80
33428;DHT22;19769;48.150;16.306;2023-06-14T15:17:11;23.70;59.10
33428;DHT22;19769;48.150;16.306;2023-06-14T15:19:37;23.60;59.90
33428;DHT22;19769;48.150;16.306;2023-06-14T15:22:02;23.60;60.80
33428;DHT22;19769;48.150;16.306;2023-06-14T15:24:28;23.40;60.30
33428;DHT22;19769;48.150;16.306;2023-06-14T15:26:56;23.30;62.40
33428;DHT22;19769;48.150;16.306;2023-06-14T15:29:21;23.30;60.60
33428;DHT22;19769;48.150;16.306;2023-06-14T15:31:47;23.30;60.70
33428;DHT22;19769;48.150;16.306;2023-06-14T15:34:14;23.30;59.90
33428;DHT22;19769;48.150;16.306;2023-06-14T15:36:40;23.30;59.10
33428;DHT22;19769;48.150;16.306;2023-06-14T15:39:05;23.20;59.40
33428;DHT22;19769;48.150;16.306;2023-06-14T15:41:34;23.30;59.70
33428;DHT22;19769;48.150;16.306;2023-06-14T15:44:00;23.20;60.30
33428;DHT22;19769;48.150;16.306;2023-06-14T15:46:25;23.20;61.50
33428;DHT22;19769;48.150;16.306;2023-06-14T15:48:51;23.10;60.00
33428;DHT22;19769;48.150;16.306;2023-06-14T15:51:17;23.10;60.30